East Saint Johnsbury, Vermont
Current Conditions -  °F | °C
As of 5:35 AM on Friday 24 Oct 2014 (Local Time) from KCDA Reporting Station
Haze Haze  
Wind Chill: 40°   Ceiling: 1400
Heat Index: 42°   Visibility: 4mi
Dew Point: 39°   Wind: 5mph
Humidity: 88%   Direction: 260°W
Pressure: 29.78"   Gusts: NA
Location:  44.44°N, 71.95°W
Report Text: KCDA 240935Z AUTO 26004KT 4SM BR SCT008 OVC014 06/04 A2978 RMK AO2 T00580040
Loading
Personal Weather Stations






























Interactive Weather Map
Tropical Storm Tracking
New forecast layout! Learn more

10-Day Weather Forecast

Advertisements
Track Severe Weather on mobile